Amado, Arizona
Current Conditions -  °F | °C
As of 10:54 AM on Monday 26 Jan 2015 (Local Time) from KOLS Reporting Station
Light Rain Light Rain  
Wind Chill: 56°   Ceiling: 9000
Heat Index: 56°   Visibility: 10mi
Dew Point: 39°   Wind: 0mph
Humidity: 53%   Direction: NA
Pressure: 30.24"   Gusts: NA
Location:  31.71°N, 111.07°W
Report Text: KOLS 261754Z AUTO 00000KT 10SM -RA OVC090 13/04 A3024 RMK AO2 SLP206 P0000 60000 T01330039 10133 20100 51016
Loading
Personal Weather Stations






























Interactive Weather Map New forecast layout! Learn more

10-Day Weather Forecast

Advertisements
Track Severe Weather on mobile